createdAt,value
2023-09-18T00:00:53.135Z,4.65
2023-09-18T00:03:21.940Z,5.07
2023-09-18T00:05:49.554Z,5.25
2023-09-18T00:08:17.450Z,5.82
2023-09-18T00:10:49.367Z,4.82
2023-09-18T00:13:16.949Z,5.70
2023-09-18T00:15:46.005Z,5.55
2023-09-18T00:18:17.461Z,5.20
2023-09-18T00:20:45.175Z,5.97
2023-09-18T00:23:12.292Z,5.50
2023-09-18T00:25:39.513Z,6.13
2023-09-18T00:28:06.818Z,6.03
2023-09-18T00:30:33.828Z,4.85
2023-09-18T00:33:00.874Z,5.28
2023-09-18T00:35:27.966Z,5.88
2023-09-18T00:37:55.219Z,4.80
2023-09-18T00:40:22.245Z,4.53
2023-09-18T00:42:49.303Z,4.53
2023-09-18T00:45:16.389Z,5.15
2023-09-18T00:47:43.488Z,5.00
2023-09-18T00:50:13.374Z,4.82
2023-09-18T00:52:41.243Z,5.35
2023-09-18T00:55:09.325Z,5.40
2023-09-18T00:57:37.052Z,5.05
2023-09-18T01:00:06.583Z,5.03
2023-09-18T01:02:35.274Z,4.80
2023-09-18T01:05:02.685Z,4.82
2023-09-18T01:07:30.530Z,4.45
2023-09-18T01:09:58.028Z,4.57
2023-09-18T01:12:33.978Z,5.32
2023-09-18T01:15:09.254Z,5.43
2023-09-18T01:17:41.790Z,5.20
2023-09-18T01:20:13.248Z,5.55
2023-09-18T01:22:40.558Z,6.22
2023-09-18T01:25:08.325Z,5.82
2023-09-18T01:27:35.644Z,5.53
2023-09-18T01:30:03.050Z,5.90
2023-09-18T01:32:33.047Z,6.43
2023-09-18T01:35:03.693Z,5.97
2023-09-18T01:37:32.364Z,6.43
2023-09-18T01:40:00.976Z,7.15
2023-09-18T01:42:28.889Z,5.93
2023-09-18T01:44:56.806Z,6.93
2023-09-18T01:47:29.996Z,6.75
2023-09-18T01:49:57.230Z,6.60
2023-09-18T01:52:24.377Z,6.28
2023-09-18T01:54:51.507Z,6.75
2023-09-18T01:57:18.599Z,7.07
2023-09-18T01:59:46.580Z,7.20
2023-09-18T02:02:20.358Z,7.82
2023-09-18T02:05:08.973Z,6.70
2023-09-18T02:07:37.576Z,7.22
2023-09-18T02:10:05.422Z,7.47
2023-09-18T02:12:32.521Z,6.85
2023-09-18T02:15:05.372Z,7.55
2023-09-18T02:17:32.549Z,6.82
2023-09-18T02:20:02.171Z,7.18
2023-09-18T02:22:29.299Z,7.30
2023-09-18T02:24:56.436Z,6.95
2023-09-18T02:27:23.546Z,7.20
2023-09-18T02:29:51.766Z,7.03
2023-09-18T02:32:18.940Z,7.00
2023-09-18T02:34:46.094Z,7.43
2023-09-18T02:37:13.302Z,7.75
2023-09-18T02:39:40.395Z,7.28
2023-09-18T02:42:07.515Z,7.68
2023-09-18T02:44:34.576Z,6.53
2023-09-18T02:47:02.500Z,7.47
2023-09-18T02:49:31.142Z,7.38
2023-09-18T02:51:58.186Z,7.97
2023-09-18T02:54:25.242Z,7.18
2023-09-18T02:56:52.335Z,7.45
2023-09-18T02:59:19.458Z,7.05
2023-09-18T03:01:46.601Z,7.43
2023-09-18T03:04:13.932Z,6.72
2023-09-18T03:06:41.589Z,8.15
2023-09-18T03:09:08.609Z,7.43
2023-09-18T03:11:35.799Z,7.82
2023-09-18T03:14:02.917Z,7.40
2023-09-18T03:16:30.740Z,7.93
2023-09-18T03:18:58.153Z,8.00
2023-09-18T03:21:25.208Z,7.25
2023-09-18T03:23:52.483Z,7.53
2023-09-18T03:26:19.548Z,8.52
2023-09-18T03:28:46.582Z,7.20
2023-09-18T03:31:13.695Z,8.25
2023-09-18T03:33:40.705Z,8.30
2023-09-18T03:36:09.149Z,8.02
2023-09-18T03:38:38.237Z,7.47
2023-09-18T03:41:05.313Z,7.53
2023-09-18T03:43:32.513Z,8.05
2023-09-18T03:46:07.135Z,7.30
2023-09-18T03:48:38.537Z,7.85
2023-09-18T03:51:09.368Z,7.53
2023-09-18T03:53:36.961Z,7.10
2023-09-18T03:56:04.234Z,8.35
2023-09-18T03:58:31.258Z,7.90
2023-09-18T04:00:58.513Z,9.02
2023-09-18T04:03:25.733Z,8.02
2023-09-18T04:05:52.953Z,7.57
2023-09-18T04:08:20.152Z,8.95
2023-09-18T04:10:47.356Z,8.65
2023-09-18T04:13:14.383Z,8.18
2023-09-18T04:15:41.572Z,7.57
2023-09-18T04:18:08.772Z,8.77
2023-09-18T04:20:37.232Z,9.02
2023-09-18T04:23:24.707Z,7.97
2023-09-18T04:25:53.119Z,8.65
2023-09-18T04:28:21.978Z,7.85
2023-09-18T04:30:49.393Z,7.93
2023-09-18T04:33:17.682Z,8.20
2023-09-18T04:35:45.821Z,7.85
2023-09-18T04:38:13.217Z,8.68
2023-09-18T04:40:42.235Z,8.50
2023-09-18T04:43:09.837Z,8.18
2023-09-18T04:45:37.049Z,7.60
2023-09-18T04:48:06.985Z,8.20
2023-09-18T04:50:35.322Z,9.40
2023-09-18T04:53:03.054Z,10.85
2023-09-18T04:55:30.168Z,9.93
2023-09-18T04:57:59.372Z,11.20
2023-09-18T05:00:27.564Z,8.43
2023-09-18T05:02:54.978Z,9.23
2023-09-18T05:05:22.547Z,8.38
2023-09-18T05:07:49.687Z,9.07
2023-09-18T05:10:16.812Z,9.40
2023-09-18T05:12:43.937Z,9.82
2023-09-18T05:15:11.435Z,8.52
2023-09-18T05:17:48.058Z,9.07
2023-09-18T05:20:18.585Z,8.07
2023-09-18T05:22:46.544Z,7.85
2023-09-18T05:25:16.655Z,10.90
2023-09-18T05:27:46.750Z,8.88
2023-09-18T05:30:24.556Z,9.32
2023-09-18T05:32:51.778Z,8.75
2023-09-18T05:35:19.110Z,8.05
2023-09-18T05:37:46.332Z,8.65
2023-09-18T05:40:15.071Z,10.77
2023-09-18T05:42:46.983Z,9.55
2023-09-18T05:45:16.239Z,7.53
2023-09-18T05:47:44.302Z,7.43
2023-09-18T05:50:17.652Z,8.10
2023-09-18T05:52:46.163Z,7.97
2023-09-18T05:55:14.105Z,10.55
2023-09-18T05:57:41.296Z,9.93
2023-09-18T06:00:09.535Z,9.98
2023-09-18T06:02:38.671Z,9.32
2023-09-18T06:05:06.702Z,9.20
2023-09-18T06:07:34.092Z,9.43
2023-09-18T06:10:01.376Z,9.85
2023-09-18T06:12:28.507Z,10.38
2023-09-18T06:14:55.661Z,9.95
2023-09-18T06:17:22.922Z,10.25
2023-09-18T06:19:50.115Z,9.27
2023-09-18T06:22:18.457Z,11.23
2023-09-18T06:24:45.461Z,11.13
2023-09-18T06:27:12.674Z,10.75
2023-09-18T06:29:40.735Z,10.27
2023-09-18T06:32:08.045Z,10.55
2023-09-18T06:34:35.786Z,9.70
2023-09-18T06:37:04.760Z,10.15
2023-09-18T06:39:31.953Z,9.88
2023-09-18T06:41:59.122Z,11.52
2023-09-18T06:44:26.208Z,9.52
2023-09-18T06:46:54.619Z,10.32
2023-09-18T06:49:21.867Z,10.15
2023-09-18T06:51:49.197Z,10.45
2023-09-18T06:54:16.588Z,10.38
2023-09-18T06:56:45.688Z,11.13
2023-09-18T06:59:16.109Z,11.55
2023-09-18T07:01:43.764Z,12.18
2023-09-18T07:04:11.272Z,15.55
2023-09-18T07:06:38.997Z,8.77
2023-09-18T07:09:08.086Z,7.75
2023-09-18T07:11:35.592Z,7.25
2023-09-18T07:14:07.736Z,7.80
2023-09-18T07:16:35.565Z,8.20
2023-09-18T07:19:05.954Z,7.70
2023-09-18T07:21:33.299Z,7.22
2023-09-18T07:24:00.610Z,7.10
2023-09-18T07:26:27.775Z,8.18
2023-09-18T07:28:55.070Z,7.85
2023-09-18T07:31:22.605Z,7.78
2023-09-18T07:33:49.790Z,7.10
2023-09-18T07:36:16.911Z,6.90
2023-09-18T07:38:44.641Z,7.00
2023-09-18T07:41:11.896Z,7.50
2023-09-18T07:43:41.048Z,8.63
2023-09-18T07:46:08.290Z,6.75
2023-09-18T07:48:36.356Z,6.72
2023-09-18T07:51:03.524Z,6.07
2023-09-18T07:53:30.816Z,9.18
2023-09-18T07:56:00.332Z,6.40
2023-09-18T07:58:29.161Z,6.07
2023-09-18T08:00:59.886Z,6.28
2023-09-18T08:03:27.892Z,8.48
2023-09-18T08:05:55.373Z,10.35
2023-09-18T08:08:23.344Z,5.97
2023-09-18T08:10:51.740Z,6.10
2023-09-18T08:13:19.199Z,5.90
2023-09-18T08:15:46.576Z,5.80
2023-09-18T08:18:17.224Z,5.75
2023-09-18T08:20:45.236Z,5.65
2023-09-18T08:23:13.018Z,5.88
2023-09-18T08:25:42.058Z,4.97
2023-09-18T08:28:10.132Z,5.15
2023-09-18T08:30:38.484Z,6.22
2023-09-18T08:33:06.579Z,5.35
2023-09-18T08:35:33.927Z,5.18
2023-09-18T08:38:01.721Z,5.03
2023-09-18T08:40:28.916Z,4.65
2023-09-18T08:42:57.860Z,5.13
2023-09-18T08:45:39.156Z,5.97
2023-09-18T08:48:07.883Z,9.43
2023-09-18T08:50:35.903Z,4.78
2023-09-18T08:53:06.169Z,4.22
2023-09-18T08:55:35.210Z,4.68
2023-09-18T08:58:02.400Z,5.45
2023-09-18T09:00:29.973Z,4.25
2023-09-18T09:02:58.880Z,4.13
2023-09-18T09:05:26.501Z,5.72
2023-09-18T09:07:53.653Z,4.47
2023-09-18T09:10:20.981Z,3.92
2023-09-18T09:12:58.687Z,3.30
2023-09-18T09:15:29.796Z,5.82
2023-09-18T09:18:09.282Z,11.63
2023-09-18T09:20:37.329Z,3.92
2023-09-18T09:23:05.945Z,8.73
2023-09-18T09:25:34.537Z,4.03
2023-09-18T09:28:06.472Z,7.70
2023-09-18T09:30:35.624Z,8.20
2023-09-18T09:33:05.755Z,9.38
2023-09-18T09:35:35.247Z,14.10
2023-09-18T09:38:03.502Z,9.73
2023-09-18T09:40:31.815Z,6.82
2023-09-18T09:43:02.831Z,7.45
2023-09-18T09:45:31.999Z,8.70
2023-09-18T09:48:02.032Z,8.48
2023-09-18T09:50:29.932Z,6.97
2023-09-18T09:52:57.612Z,7.55
2023-09-18T09:55:32.363Z,7.72
2023-09-18T09:58:05.103Z,10.57
2023-09-18T10:00:49.403Z,7.18
2023-09-18T10:03:20.800Z,9.13
2023-09-18T10:05:51.572Z,26.17
2023-09-18T10:08:23.817Z,6.68
2023-09-18T10:10:53.081Z,6.72
2023-09-18T10:13:51.295Z,7.00
2023-09-18T10:16:23.074Z,6.53
2023-09-18T10:19:29.539Z,6.55
2023-09-18T10:22:38.715Z,6.97
2023-09-18T10:25:28.468Z,6.30
2023-09-18T10:28:02.930Z,8.00
2023-09-18T10:30:35.566Z,6.82
2023-09-18T10:33:03.265Z,7.07
2023-09-18T10:35:31.138Z,6.35
2023-09-18T10:38:00.058Z,7.57
2023-09-18T10:40:29.164Z,6.93
2023-09-18T10:42:59.399Z,5.78
2023-09-18T10:45:27.633Z,7.95
2023-09-18T10:47:56.074Z,6.20
2023-09-18T10:50:28.059Z,6.40
2023-09-18T10:52:55.295Z,6.93
2023-09-18T10:55:23.271Z,5.78
2023-09-18T10:57:59.348Z,5.55
2023-09-18T11:00:29.140Z,6.13
2023-09-18T11:03:19.676Z,6.18
2023-09-18T11:05:48.863Z,8.38
2023-09-18T11:08:37.109Z,5.05
2023-09-18T11:11:11.131Z,7.97
2023-09-18T11:13:41.614Z,7.25
2023-09-18T11:16:28.996Z,14.63
2023-09-18T11:19:10.405Z,12.23
2023-09-18T11:21:37.772Z,7.10
2023-09-18T11:24:12.756Z,5.57
2023-09-18T11:26:43.879Z,6.38
2023-09-18T11:29:14.645Z,7.40
2023-09-18T11:31:55.859Z,5.72
2023-09-18T11:34:27.784Z,5.70
2023-09-18T11:36:55.213Z,4.30
2023-09-18T11:39:39.489Z,5.78
2023-09-18T11:42:09.569Z,5.82
2023-09-18T11:44:42.188Z,5.53
2023-09-18T11:47:19.628Z,6.32
2023-09-18T11:49:59.454Z,6.68
2023-09-18T11:52:30.159Z,4.55
2023-09-18T11:54:59.545Z,7.78
2023-09-18T11:57:27.108Z,6.78
2023-09-18T11:59:54.744Z,5.30
2023-09-18T12:02:29.777Z,5.13
2023-09-18T12:04:57.835Z,5.18
2023-09-18T12:07:26.070Z,4.63
2023-09-18T12:09:55.843Z,5.47
2023-09-18T12:12:23.245Z,4.63
2023-09-18T12:14:50.388Z,5.85
2023-09-18T12:17:18.049Z,7.45
2023-09-18T12:19:57.517Z,5.78
2023-09-18T12:22:29.388Z,5.93
2023-09-18T12:25:16.344Z,5.45
2023-09-18T12:27:44.167Z,5.97
2023-09-18T12:30:13.645Z,5.07
2023-09-18T12:32:41.139Z,7.30
2023-09-18T12:35:08.719Z,6.05
2023-09-18T12:37:42.666Z,5.25
2023-09-18T12:40:36.122Z,5.70
2023-09-18T12:43:04.371Z,6.13
2023-09-18T12:45:31.635Z,5.50
2023-09-18T12:48:00.997Z,6.78
2023-09-18T12:50:28.421Z,4.68
2023-09-18T12:53:08.660Z,5.68
2023-09-18T12:55:36.142Z,6.75
2023-09-18T12:58:06.924Z,6.07
2023-09-18T13:00:34.078Z,6.40
2023-09-18T13:03:01.857Z,4.85
2023-09-18T13:05:34.076Z,8.20
2023-09-18T13:08:05.867Z,5.85
2023-09-18T13:10:52.398Z,9.98
2023-09-18T13:13:20.952Z,7.75
2023-09-18T13:15:49.188Z,5.35
2023-09-18T13:18:18.002Z,5.50
2023-09-18T13:20:45.610Z,5.28
2023-09-18T13:23:12.690Z,7.60
2023-09-18T13:25:43.899Z,7.20
2023-09-18T13:28:12.134Z,5.95
2023-09-18T13:30:40.726Z,5.18
2023-09-18T13:33:09.728Z,8.05
2023-09-18T13:35:42.060Z,6.88
2023-09-18T13:38:09.783Z,6.38
2023-09-18T13:40:37.503Z,7.60
2023-09-18T13:43:05.772Z,5.18
2023-09-18T13:45:39.182Z,6.18
2023-09-18T13:48:07.537Z,6.68
2023-09-18T13:50:36.060Z,5.93
2023-09-18T13:53:05.256Z,5.88
2023-09-18T13:55:33.711Z,5.78
2023-09-18T13:58:01.228Z,7.35
2023-09-18T14:00:28.512Z,7.93
2023-09-18T14:02:55.782Z,5.75
2023-09-18T14:05:23.116Z,6.95
2023-09-18T14:07:50.426Z,6.68
2023-09-18T14:10:19.612Z,7.85
2023-09-18T14:12:46.816Z,7.60
2023-09-18T14:15:14.009Z,6.93
2023-09-18T14:17:41.230Z,8.02
2023-09-18T14:20:08.735Z,9.70
2023-09-18T14:22:36.591Z,8.80
2023-09-18T14:25:07.234Z,7.18
2023-09-18T14:27:36.646Z,7.05
2023-09-18T14:30:08.506Z,6.82
2023-09-18T14:32:38.314Z,27.02
2023-09-18T14:35:09.492Z,15.05
2023-09-18T14:37:37.977Z,47.28
2023-09-18T14:40:05.693Z,10.85
2023-09-18T14:42:32.932Z,7.50
2023-09-18T14:45:02.490Z,12.27
2023-09-18T14:47:30.430Z,15.63
2023-09-18T14:49:59.846Z,24.25
2023-09-18T14:52:27.262Z,8.38
2023-09-18T14:54:54.845Z,8.07
2023-09-18T14:57:22.279Z,9.60
2023-09-18T14:59:49.956Z,10.55
2023-09-18T15:02:19.228Z,7.53
2023-09-18T15:04:47.075Z,34.17
2023-09-18T15:07:14.986Z,7.50
2023-09-18T15:09:42.083Z,6.95
2023-09-18T15:12:09.353Z,11.75
2023-09-18T15:14:37.470Z,11.77
2023-09-18T15:17:05.134Z,9.95
2023-09-18T15:19:32.344Z,41.22
2023-09-18T15:22:00.601Z,11.27
2023-09-18T15:24:27.706Z,14.10
2023-09-18T15:26:54.826Z,8.73
2023-09-18T15:29:22.992Z,10.02
2023-09-18T15:31:50.315Z,9.70
2023-09-18T15:34:18.940Z,6.70
2023-09-18T15:36:46.162Z,10.00
2023-09-18T15:39:14.432Z,11.00
2023-09-18T15:41:42.190Z,16.27
2023-09-18T15:44:11.699Z,10.88
2023-09-18T15:46:38.949Z,9.05
2023-09-18T15:49:06.133Z,9.18
2023-09-18T15:51:33.893Z,11.02
2023-09-18T15:54:00.975Z,10.73
2023-09-18T15:56:28.184Z,9.07
2023-09-18T15:58:55.226Z,10.60
2023-09-18T16:01:22.485Z,13.30
2023-09-18T16:03:49.723Z,7.68
2023-09-18T16:06:22.195Z,8.85
2023-09-18T16:08:50.706Z,8.75
2023-09-18T16:11:18.216Z,8.60
2023-09-18T16:13:45.335Z,11.27
2023-09-18T16:16:12.528Z,9.70
2023-09-18T16:18:40.803Z,12.73
2023-09-18T16:21:09.765Z,9.88
2023-09-18T16:23:37.512Z,13.10
2023-09-18T16:26:06.341Z,9.77
2023-09-18T16:28:33.729Z,12.48
2023-09-18T16:31:06.283Z,10.27
2023-09-18T16:33:34.153Z,12.60
2023-09-18T16:36:01.489Z,10.32
2023-09-18T16:38:28.705Z,11.52
2023-09-18T16:40:56.116Z,11.13
2023-09-18T16:43:23.503Z,9.82
2023-09-18T16:45:50.744Z,11.18
2023-09-18T16:48:18.245Z,10.93
2023-09-18T16:50:45.730Z,8.82
2023-09-18T16:53:12.946Z,12.32
2023-09-18T16:55:40.192Z,2.08
2023-09-18T16:58:07.321Z,8.85
2023-09-18T17:00:34.384Z,8.95
2023-09-18T17:03:01.508Z,8.93
2023-09-18T17:05:29.869Z,9.68
2023-09-18T17:07:57.789Z,8.60
2023-09-18T17:10:24.910Z,10.35
2023-09-18T17:12:52.072Z,10.40
2023-09-18T17:15:25.791Z,10.27
2023-09-18T17:17:58.433Z,11.00
2023-09-18T17:20:30.511Z,15.55
2023-09-18T17:23:00.902Z,9.32
2023-09-18T17:25:28.020Z,10.73
2023-09-18T17:27:55.702Z,10.52
2023-09-18T17:30:23.081Z,10.48
2023-09-18T17:32:50.691Z,9.60
2023-09-18T17:35:18.606Z,9.00
2023-09-18T17:37:45.745Z,9.73
2023-09-18T17:40:13.983Z,9.15
2023-09-18T17:42:41.072Z,9.77
2023-09-18T17:45:08.789Z,12.13
2023-09-18T17:47:36.152Z,9.07
2023-09-18T17:50:04.797Z,9.90
2023-09-18T17:52:35.004Z,8.88
2023-09-18T17:55:05.927Z,10.95
2023-09-18T17:57:36.365Z,9.60
2023-09-18T18:00:06.174Z,10.48
2023-09-18T18:02:37.261Z,10.48
2023-09-18T18:05:04.965Z,9.15
2023-09-18T18:07:32.155Z,9.40
2023-09-18T18:09:59.366Z,10.40
2023-09-18T18:12:26.463Z,10.40
2023-09-18T18:14:53.825Z,11.68
2023-09-18T18:17:20.923Z,8.63
2023-09-18T18:19:48.824Z,10.15
2023-09-18T18:22:16.352Z,9.70
2023-09-18T18:24:43.891Z,11.52
2023-09-18T18:27:11.040Z,9.85
2023-09-18T18:29:38.586Z,9.38
2023-09-18T18:32:06.156Z,10.93
2023-09-18T18:34:34.504Z,11.10
2023-09-18T18:37:03.485Z,13.50
2023-09-18T18:39:31.170Z,9.52
2023-09-18T18:41:58.273Z,9.35
2023-09-18T18:44:25.345Z,10.90
2023-09-18T18:46:52.428Z,11.90
2023-09-18T18:49:19.543Z,11.20
2023-09-18T18:51:46.556Z,10.90
2023-09-18T18:54:13.664Z,11.43
2023-09-18T18:56:41.197Z,13.02
2023-09-18T18:59:08.447Z,9.60
2023-09-18T19:01:36.321Z,11.13
2023-09-18T19:04:03.728Z,10.77
2023-09-18T19:06:30.903Z,10.57
2023-09-18T19:09:00.002Z,12.40
2023-09-18T19:11:27.843Z,11.30
2023-09-18T19:13:55.032Z,12.73
2023-09-18T19:16:22.054Z,12.05
2023-09-18T19:18:49.382Z,10.88
2023-09-18T19:21:17.262Z,11.57
2023-09-18T19:23:44.723Z,11.02
2023-09-18T19:26:12.553Z,12.95
2023-09-18T19:28:40.167Z,10.10
2023-09-18T19:31:08.960Z,11.35
2023-09-18T19:33:40.314Z,13.27
2023-09-18T19:36:08.646Z,11.35
2023-09-18T19:38:39.614Z,11.27
2023-09-18T19:41:07.203Z,12.52
2023-09-18T19:43:34.895Z,10.90
2023-09-18T19:46:02.060Z,12.23
2023-09-18T19:48:29.855Z,13.90
2023-09-18T19:51:01.047Z,12.40
2023-09-18T19:53:29.286Z,12.63
2023-09-18T19:55:56.912Z,13.60
2023-09-18T19:58:24.057Z,13.10
2023-09-18T20:00:54.049Z,11.55
2023-09-18T20:03:21.460Z,12.35
2023-09-18T20:05:49.127Z,12.13
2023-09-18T20:08:16.312Z,12.68
2023-09-18T20:10:43.494Z,13.00
2023-09-18T20:13:11.599Z,11.65
2023-09-18T20:15:38.716Z,12.75
2023-09-18T20:18:06.041Z,11.80
2023-09-18T20:20:33.310Z,12.02
2023-09-18T20:23:01.934Z,12.93
2023-09-18T20:25:28.984Z,12.82
2023-09-18T20:27:56.737Z,14.32
2023-09-18T20:30:25.564Z,13.73
2023-09-18T20:32:53.252Z,12.30
2023-09-18T20:35:20.418Z,13.88
2023-09-18T20:37:47.678Z,15.13
2023-09-18T20:40:14.724Z,15.10
2023-09-18T20:42:42.317Z,13.00
2023-09-18T20:45:10.108Z,16.00
2023-09-18T20:47:37.409Z,13.93
2023-09-18T20:50:06.340Z,14.82
2023-09-18T20:52:33.671Z,12.90
2023-09-18T20:55:01.532Z,14.48
2023-09-18T20:57:28.761Z,13.57
2023-09-18T20:59:55.819Z,15.38
2023-09-18T21:02:23.112Z,16.52
2023-09-18T21:04:50.554Z,14.05
2023-09-18T21:07:18.382Z,13.32
2023-09-18T21:09:45.558Z,16.02
2023-09-18T21:12:12.877Z,13.35
2023-09-18T21:14:40.155Z,14.70
2023-09-18T21:17:08.919Z,16.38
2023-09-18T21:19:36.112Z,14.75
2023-09-18T21:22:04.181Z,15.75
2023-09-18T21:24:31.212Z,14.80
2023-09-18T21:26:58.401Z,13.80
2023-09-18T21:29:27.477Z,11.40
2023-09-18T21:34:25.322Z,11.55
2023-09-18T21:36:53.173Z,12.65
2023-09-18T21:39:21.860Z,13.27
2023-09-18T21:41:48.982Z,15.80
2023-09-18T21:44:16.713Z,14.48
2023-09-18T21:46:44.792Z,15.95
2023-09-18T21:49:12.767Z,13.90
2023-09-18T21:51:40.179Z,14.73
2023-09-18T21:54:08.392Z,14.93
2023-09-18T21:56:36.088Z,13.88
2023-09-18T21:59:04.049Z,15.25
2023-09-18T22:01:31.724Z,13.27
2023-09-18T22:03:58.856Z,15.10
2023-09-18T22:06:29.674Z,13.40
2023-09-18T22:08:56.799Z,14.95
2023-09-18T22:11:23.932Z,15.20
2023-09-18T22:13:51.036Z,16.77
2023-09-18T22:16:18.239Z,16.55
2023-09-18T22:18:47.869Z,16.20
2023-09-18T22:21:15.268Z,14.18
2023-09-18T22:23:42.890Z,19.10
2023-09-18T22:26:10.159Z,22.65
2023-09-18T22:28:38.182Z,22.20
2023-09-18T22:31:05.454Z,18.92
2023-09-18T22:33:32.865Z,23.08
2023-09-18T22:36:05.228Z,21.58
2023-09-18T22:38:53.748Z,24.42
2023-09-18T22:41:20.714Z,24.08
2023-09-18T22:44:27.520Z,27.00
2023-09-18T22:50:42.565Z,27.33
2023-09-18T22:53:09.842Z,29.58
2023-09-18T22:55:41.669Z,28.95
2023-09-18T22:58:10.583Z,28.48
2023-09-18T23:00:39.372Z,30.42
2023-09-18T23:03:10.890Z,28.50
2023-09-18T23:05:38.470Z,29.40
2023-09-18T23:08:09.962Z,28.70
2023-09-18T23:10:38.797Z,30.15
2023-09-18T23:13:06.125Z,30.13
2023-09-18T23:15:38.427Z,26.75
2023-09-18T23:18:07.478Z,29.25
2023-09-18T23:20:37.116Z,30.48
2023-09-18T23:23:05.031Z,33.22
2023-09-18T23:25:34.947Z,32.88
2023-09-18T23:28:02.320Z,26.00
2023-09-18T23:30:29.497Z,23.83
2023-09-18T23:33:01.857Z,33.10
2023-09-18T23:35:33.929Z,21.35
2023-09-18T23:38:04.853Z,34.75
2023-09-18T23:40:33.704Z,23.33
2023-09-18T23:43:05.534Z,37.92
2023-09-18T23:45:52.377Z,34.40
2023-09-18T23:48:24.121Z,25.95
2023-09-18T23:50:52.616Z,38.92
2023-09-18T23:53:22.096Z,30.10
2023-09-18T23:55:51.044Z,33.17
2023-09-18T23:58:18.714Z,26.95
